sensor_id;sensor_type;location;lat;lon;timestamp;pressure;altitude;pressure_sealevel;temperature;humidity
49342;BME280;35210;41.606;-87.602;2023-04-08T00:01:33;101008.78;;;10.30;42.94
49342;BME280;35210;41.606;-87.602;2023-04-08T00:04:03;101002.94;;;10.23;43.58
49342;BME280;35210;41.606;-87.602;2023-04-08T00:06:34;100997.59;;;10.25;43.96
49342;BME280;35210;41.606;-87.602;2023-04-08T00:09:03;101003.25;;;10.34;43.31
49342;BME280;35210;41.606;-87.602;2023-04-08T00:11:31;101006.31;;;10.42;42.93
49342;BME280;35210;41.606;-87.602;2023-04-08T00:14:00;100996.53;;;10.44;42.92
49342;BME280;35210;41.606;-87.602;2023-04-08T00:16:28;100998.75;;;10.36;42.28
49342;BME280;35210;41.606;-87.602;2023-04-08T00:18:56;100999.38;;;10.24;42.89
49342;BME280;35210;41.606;-87.602;2023-04-08T00:21:25;100989.09;;;10.18;43.57
49342;BME280;35210;41.606;-87.602;2023-04-08T00:23:53;100989.09;;;10.18;43.09
49342;BME280;35210;41.606;-87.602;2023-04-08T00:26:22;100987.63;;;10.12;43.37
49342;BME280;35210;41.606;-87.602;2023-04-08T00:28:51;100986.13;;;10.07;43.75
49342;BME280;35210;41.606;-87.602;2023-04-08T00:31:19;100984.28;;;10.09;43.56
49342;BME280;35210;41.606;-87.602;2023-04-08T00:33:47;100979.25;;;10.22;43.20
49342;BME280;35210;41.606;-87.602;2023-04-08T00:36:15;100983.22;;;10.30;42.86
49342;BME280;35210;41.606;-87.602;2023-04-08T00:38:45;100980.13;;;10.22;42.83
49342;BME280;35210;41.606;-87.602;2023-04-08T00:41:14;100976.75;;;10.18;43.52
49342;BME280;35210;41.606;-87.602;2023-04-08T00:43:42;100981.91;;;10.22;44.15
49342;BME280;35210;41.606;-87.602;2023-04-08T00:46:11;100984.47;;;10.23;43.37
49342;BME280;35210;41.606;-87.602;2023-04-08T00:48:39;100989.66;;;10.25;43.24
49342;BME280;35210;41.606;-87.602;2023-04-08T00:51:07;100991.88;;;10.15;44.24
49342;BME280;35210;41.606;-87.602;2023-04-08T00:53:36;100989.25;;;10.15;44.20
49342;BME280;35210;41.606;-87.602;2023-04-08T00:56:07;100988.38;;;10.14;44.56
49342;BME280;35210;41.606;-87.602;2023-04-08T00:58:35;100992.72;;;9.98;45.57
49342;BME280;35210;41.606;-87.602;2023-04-08T01:01:11;100987.22;;;10.03;45.69
49342;BME280;35210;41.606;-87.602;2023-04-08T01:03:49;100981.88;;;10.04;45.77
49342;BME280;35210;41.606;-87.602;2023-04-08T01:06:29;100983.31;;;9.93;47.15
49342;BME280;35210;41.606;-87.602;2023-04-08T01:08:59;100982.56;;;9.91;47.63
49342;BME280;35210;41.606;-87.602;2023-04-08T01:11:34;100979.13;;;9.88;47.75
49342;BME280;35210;41.606;-87.602;2023-04-08T01:14:04;100976.66;;;9.85;48.09
49342;BME280;35210;41.606;-87.602;2023-04-08T01:16:38;100975.63;;;9.88;48.58
49342;BME280;35210;41.606;-87.602;2023-04-08T01:19:09;100979.03;;;9.73;48.47
49342;BME280;35210;41.606;-87.602;2023-04-08T01:21:43;100982.59;;;9.72;49.17
49342;BME280;35210;41.606;-87.602;2023-04-08T01:24:19;100976.94;;;9.62;49.65
49342;BME280;35210;41.606;-87.602;2023-04-08T01:26:52;100984.53;;;9.68;49.85
49342;BME280;35210;41.606;-87.602;2023-04-08T01:29:24;100985.94;;;9.75;49.50
49342;BME280;35210;41.606;-87.602;2023-04-08T01:31:54;100983.94;;;9.80;49.54
49342;BME280;35210;41.606;-87.602;2023-04-08T01:34:24;100981.81;;;9.70;49.83
49342;BME280;35210;41.606;-87.602;2023-04-08T01:36:53;100982.59;;;9.54;49.95
49342;BME280;35210;41.606;-87.602;2023-04-08T01:39:23;100978.88;;;9.59;50.40
49342;BME280;35210;41.606;-87.602;2023-04-08T01:41:55;100974.59;;;9.56;50.65
49342;BME280;35210;41.606;-87.602;2023-04-08T01:44:26;100968.41;;;9.57;50.80
49342;BME280;35210;41.606;-87.602;2023-04-08T01:46:56;100970.91;;;9.41;50.80
49342;BME280;35210;41.606;-87.602;2023-04-08T01:49:25;100973.91;;;9.34;51.68
49342;BME280;35210;41.606;-87.602;2023-04-08T01:51:54;100978.41;;;9.32;51.80
49342;BME280;35210;41.606;-87.602;2023-04-08T01:54:24;100978.25;;;9.35;51.89
49342;BME280;35210;41.606;-87.602;2023-04-08T01:56:54;100988.59;;;9.39;51.58
49342;BME280;35210;41.606;-87.602;2023-04-08T01:59:30;100987.88;;;9.36;52.79
49342;BME280;35210;41.606;-87.602;2023-04-08T02:02:04;100987.81;;;9.37;52.67
49342;BME280;35210;41.606;-87.602;2023-04-08T02:04:34;100986.75;;;9.41;52.64
49342;BME280;35210;41.606;-87.602;2023-04-08T02:07:04;100995.22;;;9.48;52.46
49342;BME280;35210;41.606;-87.602;2023-04-08T02:09:33;100998.00;;;9.45;51.57
49342;BME280;35210;41.606;-87.602;2023-04-08T02:12:03;100998.78;;;9.47;51.18
49342;BME280;35210;41.606;-87.602;2023-04-08T02:14:32;101000.56;;;9.46;51.14
49342;BME280;35210;41.606;-87.602;2023-04-08T02:17:07;100999.69;;;9.46;51.00
49342;BME280;35210;41.606;-87.602;2023-04-08T02:19:45;100994.44;;;9.46;50.23
49342;BME280;35210;41.606;-87.602;2023-04-08T02:22:18;101001.34;;;9.48;49.62
49342;BME280;35210;41.606;-87.602;2023-04-08T02:24:52;100999.56;;;9.49;49.58
49342;BME280;35210;41.606;-87.602;2023-04-08T02:27:24;101006.41;;;9.53;49.43
49342;BME280;35210;41.606;-87.602;2023-04-08T02:29:55;101006.31;;;9.54;49.70
49342;BME280;35210;41.606;-87.602;2023-04-08T02:32:24;101005.31;;;9.57;48.68
49342;BME280;35210;41.606;-87.602;2023-04-08T02:34:54;101018.50;;;9.57;49.09
49342;BME280;35210;41.606;-87.602;2023-04-08T02:37:23;101021.09;;;9.40;49.83
49342;BME280;35210;41.606;-87.602;2023-04-08T02:39:51;101016.25;;;9.31;50.62
49342;BME280;35210;41.606;-87.602;2023-04-08T02:42:21;101023.34;;;9.29;51.58
49342;BME280;35210;41.606;-87.602;2023-04-08T02:44:50;101023.13;;;9.14;52.21
49342;BME280;35210;41.606;-87.602;2023-04-08T02:47:18;101030.88;;;8.99;53.09
49342;BME280;35210;41.606;-87.602;2023-04-08T02:49:47;101034.94;;;8.87;54.72
49342;BME280;35210;41.606;-87.602;2023-04-08T02:52:19;101036.00;;;8.83;54.65
49342;BME280;35210;41.606;-87.602;2023-04-08T02:54:48;101040.28;;;8.85;55.34
49342;BME280;35210;41.606;-87.602;2023-04-08T02:57:16;101034.44;;;8.98;55.41
49342;BME280;35210;41.606;-87.602;2023-04-08T02:59:46;101034.31;;;9.01;56.11
49342;BME280;35210;41.606;-87.602;2023-04-08T03:02:14;101040.84;;;8.92;56.72
49342;BME280;35210;41.606;-87.602;2023-04-08T03:04:43;101038.31;;;8.91;57.34
49342;BME280;35210;41.606;-87.602;2023-04-08T03:07:11;101039.56;;;8.82;57.62
49342;BME280;35210;41.606;-87.602;2023-04-08T03:09:39;101026.53;;;8.79;58.78
49342;BME280;35210;41.606;-87.602;2023-04-08T03:12:07;101029.38;;;8.74;59.80
49342;BME280;35210;41.606;-87.602;2023-04-08T03:14:36;101020.47;;;8.77;60.34
49342;BME280;35210;41.606;-87.602;2023-04-08T03:17:06;101015.63;;;8.68;60.36
49342;BME280;35210;41.606;-87.602;2023-04-08T03:19:35;101021.00;;;8.65;61.20
49342;BME280;35210;41.606;-87.602;2023-04-08T03:22:03;101021.53;;;8.52;62.37
49342;BME280;35210;41.606;-87.602;2023-04-08T03:24:31;101019.56;;;8.57;62.85
49342;BME280;35210;41.606;-87.602;2023-04-08T03:26:59;101016.53;;;8.46;63.53
49342;BME280;35210;41.606;-87.602;2023-04-08T03:29:27;101008.00;;;8.41;64.20
49342;BME280;35210;41.606;-87.602;2023-04-08T03:31:55;101004.56;;;8.39;64.16
49342;BME280;35210;41.606;-87.602;2023-04-08T03:34:25;101002.97;;;8.35;65.13
49342;BME280;35210;41.606;-87.602;2023-04-08T03:36:53;101012.41;;;8.41;64.45
49342;BME280;35210;41.606;-87.602;2023-04-08T03:39:21;101020.44;;;8.38;64.74
49342;BME280;35210;41.606;-87.602;2023-04-08T03:41:50;101021.22;;;8.40;66.23
49342;BME280;35210;41.606;-87.602;2023-04-08T03:44:19;101022.59;;;8.48;65.98
49342;BME280;35210;41.606;-87.602;2023-04-08T03:46:49;101025.81;;;8.55;64.75
49342;BME280;35210;41.606;-87.602;2023-04-08T03:49:18;101024.31;;;8.49;64.69
49342;BME280;35210;41.606;-87.602;2023-04-08T03:51:50;101026.94;;;8.49;64.77
49342;BME280;35210;41.606;-87.602;2023-04-08T03:54:18;101026.69;;;8.55;64.12
49342;BME280;35210;41.606;-87.602;2023-04-08T03:56:47;101010.56;;;8.43;64.48
49342;BME280;35210;41.606;-87.602;2023-04-08T03:59:16;101010.81;;;8.37;64.63
49342;BME280;35210;41.606;-87.602;2023-04-08T04:01:44;101018.09;;;8.30;65.06
49342;BME280;35210;41.606;-87.602;2023-04-08T04:04:12;101025.25;;;8.27;65.08
49342;BME280;35210;41.606;-87.602;2023-04-08T04:06:41;101019.00;;;8.29;64.51
49342;BME280;35210;41.606;-87.602;2023-04-08T04:09:12;101019.78;;;8.31;64.76
49342;BME280;35210;41.606;-87.602;2023-04-08T04:11:42;101014.84;;;8.23;65.10
49342;BME280;35210;41.606;-87.602;2023-04-08T04:14:10;101000.78;;;8.24;65.07
49342;BME280;35210;41.606;-87.602;2023-04-08T04:16:38;101002.50;;;8.25;64.64
49342;BME280;35210;41.606;-87.602;2023-04-08T04:19:07;100998.16;;;8.24;65.08
49342;BME280;35210;41.606;-87.602;2023-04-08T04:21:35;100995.50;;;8.24;64.79
49342;BME280;35210;41.606;-87.602;2023-04-08T04:24:03;101010.31;;;8.27;64.68
49342;BME280;35210;41.606;-87.602;2023-04-08T04:26:34;101012.81;;;8.30;64.52
49342;BME280;35210;41.606;-87.602;2023-04-08T04:29:02;101010.31;;;8.27;64.35
49342;BME280;35210;41.606;-87.602;2023-04-08T04:31:31;101009.28;;;8.31;65.14
49342;BME280;35210;41.606;-87.602;2023-04-08T04:34:00;101004.94;;;8.30;64.65
49342;BME280;35210;41.606;-87.602;2023-04-08T04:36:28;101007.34;;;8.36;64.97
49342;BME280;35210;41.606;-87.602;2023-04-08T04:38:58;101003.84;;;8.36;64.20
49342;BME280;35210;41.606;-87.602;2023-04-08T04:41:27;100997.59;;;8.38;64.44
49342;BME280;35210;41.606;-87.602;2023-04-08T04:43:58;100999.03;;;8.45;64.34
49342;BME280;35210;41.606;-87.602;2023-04-08T04:46:27;101001.06;;;8.39;64.53
49342;BME280;35210;41.606;-87.602;2023-04-08T04:48:55;101004.69;;;8.36;65.08
49342;BME280;35210;41.606;-87.602;2023-04-08T04:51:24;100999.78;;;8.27;65.34
49342;BME280;35210;41.606;-87.602;2023-04-08T04:53:53;100991.09;;;8.25;65.42
49342;BME280;35210;41.606;-87.602;2023-04-08T04:56:21;100998.34;;;8.20;65.78
49342;BME280;35210;41.606;-87.602;2023-04-08T04:58:50;101006.53;;;8.14;65.90
49342;BME280;35210;41.606;-87.602;2023-04-08T05:01:21;101005.72;;;8.12;66.30
49342;BME280;35210;41.606;-87.602;2023-04-08T05:03:49;101009.16;;;8.14;66.84
49342;BME280;35210;41.606;-87.602;2023-04-08T05:06:21;101005.00;;;8.08;66.81
49342;BME280;35210;41.606;-87.602;2023-04-08T05:08:50;101009.53;;;8.05;67.42
49342;BME280;35210;41.606;-87.602;2023-04-08T05:11:18;100999.25;;;7.99;67.79
49342;BME280;35210;41.606;-87.602;2023-04-08T05:13:47;100996.56;;;8.00;68.00
49342;BME280;35210;41.606;-87.602;2023-04-08T05:16:19;100997.63;;;7.96;68.18
49342;BME280;35210;41.606;-87.602;2023-04-08T05:18:48;101009.00;;;7.97;68.30
49342;BME280;35210;41.606;-87.602;2023-04-08T05:21:16;100999.41;;;7.96;68.06
49342;BME280;35210;41.606;-87.602;2023-04-08T05:23:44;101000.19;;;7.98;68.38
49342;BME280;35210;41.606;-87.602;2023-04-08T05:26:12;100995.84;;;7.97;68.45
49342;BME280;35210;41.606;-87.602;2023-04-08T05:28:41;100992.16;;;8.01;68.25
49342;BME280;35210;41.606;-87.602;2023-04-08T05:31:09;100995.59;;;8.03;68.40
49342;BME280;35210;41.606;-87.602;2023-04-08T05:33:39;100993.88;;;8.02;68.78
49342;BME280;35210;41.606;-87.602;2023-04-08T05:36:07;100989.47;;;8.02;68.45
49342;BME280;35210;41.606;-87.602;2023-04-08T05:38:36;100994.53;;;8.07;68.43
49342;BME280;35210;41.606;-87.602;2023-04-08T05:41:04;100995.47;;;8.06;67.59
49342;BME280;35210;41.606;-87.602;2023-04-08T05:43:33;100980.97;;;7.96;68.11
49342;BME280;35210;41.606;-87.602;2023-04-08T05:46:05;100977.44;;;7.97;68.03
49342;BME280;35210;41.606;-87.602;2023-04-08T05:48:34;100973.47;;;7.86;68.33
49342;BME280;35210;41.606;-87.602;2023-04-08T05:51:05;100978.25;;;7.77;69.23
49342;BME280;35210;41.606;-87.602;2023-04-08T05:53:33;100966.16;;;7.73;69.82
49342;BME280;35210;41.606;-87.602;2023-04-08T05:56:02;100969.69;;;7.72;70.33
49342;BME280;35210;41.606;-87.602;2023-04-08T05:58:30;100965.28;;;7.72;70.38
49342;BME280;35210;41.606;-87.602;2023-04-08T06:00:58;100966.09;;;7.74;70.53
49342;BME280;35210;41.606;-87.602;2023-04-08T06:03:26;100967.00;;;7.73;70.97
49342;BME280;35210;41.606;-87.602;2023-04-08T06:05:55;100966.09;;;7.74;70.36
49342;BME280;35210;41.606;-87.602;2023-04-08T06:08:25;100965.03;;;7.78;70.43
49342;BME280;35210;41.606;-87.602;2023-04-08T06:10:53;100968.47;;;7.80;69.83
49342;BME280;35210;41.606;-87.602;2023-04-08T06:13:21;100961.44;;;7.81;69.49
49342;BME280;35210;41.606;-87.602;2023-04-08T06:15:51;100959.78;;;7.78;69.68
49342;BME280;35210;41.606;-87.602;2023-04-08T06:18:19;100960.56;;;7.80;69.05
49342;BME280;35210;41.606;-87.602;2023-04-08T06:20:47;100958.13;;;7.76;69.44
49342;BME280;35210;41.606;-87.602;2023-04-08T06:23:16;100948.59;;;7.73;69.56
49342;BME280;35210;41.606;-87.602;2023-04-08T06:25:45;100945.16;;;7.71;70.08
49342;BME280;35210;41.606;-87.602;2023-04-08T06:28:13;100952.19;;;7.71;70.60
49342;BME280;35210;41.606;-87.602;2023-04-08T06:30:42;100947.88;;;7.70;71.16
49342;BME280;35210;41.606;-87.602;2023-04-08T06:33:10;100944.31;;;7.71;71.02
49342;BME280;35210;41.606;-87.602;2023-04-08T06:35:38;100943.59;;;7.67;70.91
49342;BME280;35210;41.606;-87.602;2023-04-08T06:38:06;100934.13;;;7.63;71.05
49342;BME280;35210;41.606;-87.602;2023-04-08T06:40:37;100932.41;;;7.62;70.89
49342;BME280;35210;41.606;-87.602;2023-04-08T06:43:07;100922.94;;;7.58;71.00
49342;BME280;35210;41.606;-87.602;2023-04-08T06:45:35;100919.44;;;7.57;71.19
49342;BME280;35210;41.606;-87.602;2023-04-08T06:48:04;100921.34;;;7.54;71.66
49342;BME280;35210;41.606;-87.602;2023-04-08T06:50:34;100914.38;;;7.53;71.86
49342;BME280;35210;41.606;-87.602;2023-04-08T06:53:02;100910.16;;;7.49;71.75
49342;BME280;35210;41.606;-87.602;2023-04-08T06:55:30;100910.28;;;7.46;72.25
49342;BME280;35210;41.606;-87.602;2023-04-08T06:57:59;100902.41;;;7.46;72.20
49342;BME280;35210;41.606;-87.602;2023-04-08T07:00:29;100908.56;;;7.45;72.44
49342;BME280;35210;41.606;-87.602;2023-04-08T07:02:57;100910.56;;;7.40;72.32
49342;BME280;35210;41.606;-87.602;2023-04-08T07:05:25;100903.72;;;7.36;72.51
49342;BME280;35210;41.606;-87.602;2023-04-08T07:07:53;100902.94;;;7.34;72.73
49342;BME280;35210;41.606;-87.602;2023-04-08T07:10:21;100900.31;;;7.34;72.96
49342;BME280;35210;41.606;-87.602;2023-04-08T07:12:50;100891.63;;;7.32;73.20
49342;BME280;35210;41.606;-87.602;2023-04-08T07:15:18;100897.84;;;7.29;73.37
49342;BME280;35210;41.606;-87.602;2023-04-08T07:17:48;100891.88;;;7.25;73.27
49342;BME280;35210;41.606;-87.602;2023-04-08T07:20:17;100884.13;;;7.22;73.66
49342;BME280;35210;41.606;-87.602;2023-04-08T07:22:45;100890.34;;;7.20;73.62
49342;BME280;35210;41.606;-87.602;2023-04-08T07:25:13;100895.78;;;7.15;73.74
49342;BME280;35210;41.606;-87.602;2023-04-08T07:27:41;100891.50;;;7.13;73.89
49342;BME280;35210;41.606;-87.602;2023-04-08T07:30:10;100885.63;;;7.06;73.77
49342;BME280;35210;41.606;-87.602;2023-04-08T07:32:38;100876.78;;;7.09;74.07
49342;BME280;35210;41.606;-87.602;2023-04-08T07:35:08;100870.59;;;7.10;73.54
49342;BME280;35210;41.606;-87.602;2023-04-08T07:37:39;100871.81;;;7.01;73.37
49342;BME280;35210;41.606;-87.602;2023-04-08T07:40:08;100871.09;;;6.98;73.98
49342;BME280;35210;41.606;-87.602;2023-04-08T07:42:38;100867.59;;;6.97;73.59
49342;BME280;35210;41.606;-87.602;2023-04-08T07:45:07;100870.28;;;6.96;73.94
49342;BME280;35210;41.606;-87.602;2023-04-08T07:47:35;100868.66;;;6.93;74.04
49342;BME280;35210;41.606;-87.602;2023-04-08T07:50:08;100859.91;;;6.92;73.76
49342;BME280;35210;41.606;-87.602;2023-04-08T07:52:36;100856.44;;;6.92;73.68
49342;BME280;35210;41.606;-87.602;2023-04-08T07:55:05;100866.94;;;6.92;73.42
49342;BME280;35210;41.606;-87.602;2023-04-08T07:57:33;100854.78;;;6.89;73.82
49342;BME280;35210;41.606;-87.602;2023-04-08T08:00:02;100845.94;;;6.92;73.65
49342;BME280;35210;41.606;-87.602;2023-04-08T08:02:31;100846.03;;;6.89;73.67
49342;BME280;35210;41.606;-87.602;2023-04-08T08:05:01;100841.66;;;6.89;73.39
49342;BME280;35210;41.606;-87.602;2023-04-08T08:07:31;100843.47;;;6.87;72.85
49342;BME280;35210;41.606;-87.602;2023-04-08T08:09:59;100844.44;;;6.85;72.87
49342;BME280;35210;41.606;-87.602;2023-04-08T08:12:27;100839.19;;;6.85;73.62
49342;BME280;35210;41.606;-87.602;2023-04-08T08:14:56;100840.25;;;6.81;73.33
49342;BME280;35210;41.606;-87.602;2023-04-08T08:17:24;100840.28;;;6.79;73.62
49342;BME280;35210;41.606;-87.602;2023-04-08T08:19:55;100834.31;;;6.76;73.44
49342;BME280;35210;41.606;-87.602;2023-04-08T08:22:23;100837.16;;;6.70;74.11
49342;BME280;35210;41.606;-87.602;2023-04-08T08:24:56;100833.78;;;6.68;74.09
49342;BME280;35210;41.606;-87.602;2023-04-08T08:27:25;100832.31;;;6.61;74.52
49342;BME280;35210;41.606;-87.602;2023-04-08T08:29:53;100838.34;;;6.63;74.19
49342;BME280;35210;41.606;-87.602;2023-04-08T08:32:22;100838.41;;;6.61;74.52
49342;BME280;35210;41.606;-87.602;2023-04-08T08:34:50;100842.88;;;6.59;74.46
49342;BME280;35210;41.606;-87.602;2023-04-08T08:37:18;100844.81;;;6.54;75.27
49342;BME280;35210;41.606;-87.602;2023-04-08T08:39:46;100845.91;;;6.48;76.42
49342;BME280;35210;41.606;-87.602;2023-04-08T08:42:23;100840.75;;;6.45;77.60
49342;BME280;35210;41.606;-87.602;2023-04-08T08:44:51;100839.91;;;6.45;77.81
49342;BME280;35210;41.606;-87.602;2023-04-08T08:47:19;100833.81;;;6.44;77.55
49342;BME280;35210;41.606;-87.602;2023-04-08T08:49:47;100842.53;;;6.45;77.88
49342;BME280;35210;41.606;-87.602;2023-04-08T08:52:16;100846.00;;;6.45;77.60
49342;BME280;35210;41.606;-87.602;2023-04-08T08:54:44;100849.44;;;6.47;77.40
49342;BME280;35210;41.606;-87.602;2023-04-08T08:57:23;100844.06;;;6.50;76.81
49342;BME280;35210;41.606;-87.602;2023-04-08T08:59:51;100854.56;;;6.50;76.88
49342;BME280;35210;41.606;-87.602;2023-04-08T09:02:24;100851.03;;;6.51;76.17
49342;BME280;35210;41.606;-87.602;2023-04-08T09:04:58;100853.75;;;6.48;75.32
49342;BME280;35210;41.606;-87.602;2023-04-08T09:07:27;100853.09;;;6.43;75.05
49342;BME280;35210;41.606;-87.602;2023-04-08T09:09:56;100846.91;;;6.44;74.70
49342;BME280;35210;41.606;-87.602;2023-04-08T09:12:26;100844.41;;;6.41;74.52
49342;BME280;35210;41.606;-87.602;2023-04-08T09:15:04;100843.72;;;6.36;74.15
49342;BME280;35210;41.606;-87.602;2023-04-08T09:17:36;100843.84;;;6.33;74.66
49342;BME280;35210;41.606;-87.602;2023-04-08T09:20:09;100842.94;;;6.34;73.77
49342;BME280;35210;41.606;-87.602;2023-04-08T09:22:57;100834.38;;;6.29;73.49
49342;BME280;35210;41.606;-87.602;2023-04-08T09:25:26;100829.88;;;6.33;72.95
49342;BME280;35210;41.606;-87.602;2023-04-08T09:27:56;100844.53;;;6.38;72.25
49342;BME280;35210;41.606;-87.602;2023-04-08T09:30:25;100831.47;;;6.37;71.73
49342;BME280;35210;41.606;-87.602;2023-04-08T09:32:55;100827.25;;;6.33;71.74
49342;BME280;35210;41.606;-87.602;2023-04-08T09:35:24;100824.72;;;6.30;71.61
49342;BME280;35210;41.606;-87.602;2023-04-08T09:37:52;100814.31;;;6.28;70.69
49342;BME280;35210;41.606;-87.602;2023-04-08T09:40:22;100812.81;;;6.21;70.06
49342;BME280;35210;41.606;-87.602;2023-04-08T09:42:53;100808.47;;;6.20;70.09
49342;BME280;35210;41.606;-87.602;2023-04-08T09:45:24;100803.00;;;6.26;69.92
49342;BME280;35210;41.606;-87.602;2023-04-08T09:47:59;100806.53;;;6.25;69.55
49342;BME280;35210;41.606;-87.602;2023-04-08T09:50:32;100814.25;;;6.30;69.02
49342;BME280;35210;41.606;-87.602;2023-04-08T09:53:09;100812.19;;;6.38;68.03
49342;BME280;35210;41.606;-87.602;2023-04-08T09:55:43;100813.84;;;6.40;68.16
49342;BME280;35210;41.606;-87.602;2023-04-08T09:58:17;100817.19;;;6.44;67.86
49342;BME280;35210;41.606;-87.602;2023-04-08T10:00:52;100821.47;;;6.46;68.53
49342;BME280;35210;41.606;-87.602;2023-04-08T10:03:26;100824.91;;;6.48;68.31
49342;BME280;35210;41.606;-87.602;2023-04-08T10:05:57;100833.47;;;6.53;68.27
49342;BME280;35210;41.606;-87.602;2023-04-08T10:08:29;100823.63;;;6.58;68.27
49342;BME280;35210;41.606;-87.602;2023-04-08T10:10:58;100828.78;;;6.62;67.86
49342;BME280;35210;41.606;-87.602;2023-04-08T10:13:27;100831.28;;;6.65;66.88
49342;BME280;35210;41.606;-87.602;2023-04-08T10:16:21;100830.22;;;6.69;66.64
49342;BME280;35210;41.606;-87.602;2023-04-08T10:18:51;100825.75;;;6.71;67.00
49342;BME280;35210;41.606;-87.602;2023-04-08T10:21:34;100825.53;;;6.77;66.51
49342;BME280;35210;41.606;-87.602;2023-04-08T10:24:06;100825.53;;;6.77;66.10
49342;BME280;35210;41.606;-87.602;2023-04-08T10:26:39;100832.41;;;6.79;66.16
49342;BME280;35210;41.606;-87.602;2023-04-08T10:29:30;100830.66;;;6.80;66.49
49342;BME280;35210;41.606;-87.602;2023-04-08T10:32:01;100829.78;;;6.79;66.68
49342;BME280;35210;41.606;-87.602;2023-04-08T10:34:29;100843.59;;;6.84;66.63
49342;BME280;35210;41.606;-87.602;2023-04-08T10:36:57;100845.25;;;6.87;66.42
49342;BME280;35210;41.606;-87.602;2023-04-08T10:39:29;100845.13;;;6.90;66.17
49342;BME280;35210;41.606;-87.602;2023-04-08T10:42:00;100846.59;;;6.97;65.74
49342;BME280;35210;41.606;-87.602;2023-04-08T10:44:30;100840.56;;;6.95;66.08
49342;BME280;35210;41.606;-87.602;2023-04-08T10:46:58;100852.03;;;6.92;66.62
49342;BME280;35210;41.606;-87.602;2023-04-08T10:49:34;100849.97;;;7.01;66.18
49342;BME280;35210;41.606;-87.602;2023-04-08T10:52:06;100855.34;;;6.98;65.99
49342;BME280;35210;41.606;-87.602;2023-04-08T10:54:36;100853.69;;;6.95;65.99
49342;BME280;35210;41.606;-87.602;2023-04-08T10:57:06;100859.06;;;6.92;65.83
49342;BME280;35210;41.606;-87.602;2023-04-08T10:59:34;100863.38;;;6.93;65.58
49342;BME280;35210;41.606;-87.602;2023-04-08T11:02:02;100861.56;;;6.95;65.52
49342;BME280;35210;41.606;-87.602;2023-04-08T11:04:30;100868.41;;;6.99;64.66
49342;BME280;35210;41.606;-87.602;2023-04-08T11:07:04;100863.16;;;6.99;65.04
49342;BME280;35210;41.606;-87.602;2023-04-08T11:09:33;100872.56;;;7.05;64.48
49342;BME280;35210;41.606;-87.602;2023-04-08T11:12:06;100876.97;;;7.04;64.33
49342;BME280;35210;41.606;-87.602;2023-04-08T11:14:34;100876.97;;;7.04;64.82
49342;BME280;35210;41.606;-87.602;2023-04-08T11:17:03;100876.72;;;7.10;64.22
49342;BME280;35210;41.606;-87.602;2023-04-08T11:19:33;100881.13;;;7.10;64.50
49342;BME280;35210;41.606;-87.602;2023-04-08T11:22:04;100894.06;;;7.14;64.05
49342;BME280;35210;41.606;-87.602;2023-04-08T11:24:35;100898.34;;;7.17;63.98
49342;BME280;35210;41.606;-87.602;2023-04-08T11:27:03;100897.44;;;7.18;63.97
49342;BME280;35210;41.606;-87.602;2023-04-08T11:29:32;100903.59;;;7.17;64.09
49342;BME280;35210;41.606;-87.602;2023-04-08T11:32:03;100908.91;;;7.15;64.44
49342;BME280;35210;41.606;-87.602;2023-04-08T11:34:31;100913.97;;;7.20;64.36
49342;BME280;35210;41.606;-87.602;2023-04-08T11:36:59;100920.78;;;7.25;63.84
49342;BME280;35210;41.606;-87.602;2023-04-08T11:39:29;100923.41;;;7.25;63.97
49342;BME280;35210;41.606;-87.602;2023-04-08T11:41:58;100926.94;;;7.24;64.19
49342;BME280;35210;41.606;-87.602;2023-04-08T11:44:30;100933.91;;;7.25;64.32
49342;BME280;35210;41.606;-87.602;2023-04-08T11:46:59;100939.28;;;7.22;64.74
49342;BME280;35210;41.606;-87.602;2023-04-08T11:49:27;100939.34;;;7.21;64.87
49342;BME280;35210;41.606;-87.602;2023-04-08T11:52:10;100948.09;;;7.21;64.94
49342;BME280;35210;41.606;-87.602;2023-04-08T11:54:42;100952.47;;;7.21;65.73
49342;BME280;35210;41.606;-87.602;2023-04-08T11:57:10;100956.75;;;7.23;65.33
49342;BME280;35210;41.606;-87.602;2023-04-08T11:59:40;100952.28;;;7.25;65.50
49342;BME280;35210;41.606;-87.602;2023-04-08T12:02:08;100960.19;;;7.25;65.50
49342;BME280;35210;41.606;-87.602;2023-04-08T12:04:36;100960.91;;;7.29;65.58
49342;BME280;35210;41.606;-87.602;2023-04-08T12:07:05;100970.44;;;7.32;65.81
49342;BME280;35210;41.606;-87.602;2023-04-08T12:09:33;100972.16;;;7.33;65.57
49342;BME280;35210;41.606;-87.602;2023-04-08T12:12:03;100978.28;;;7.33;65.83
49342;BME280;35210;41.606;-87.602;2023-04-08T12:14:31;100983.41;;;7.36;65.71
49342;BME280;35210;41.606;-87.602;2023-04-08T12:16:59;100973.75;;;7.37;65.42
49342;BME280;35210;41.606;-87.602;2023-04-08T12:19:27;100980.59;;;7.41;65.73
49342;BME280;35210;41.606;-87.602;2023-04-08T12:21:55;100975.06;;;7.47;65.32
49342;BME280;35210;41.606;-87.602;2023-04-08T12:24:23;100983.75;;;7.49;65.08
49342;BME280;35210;41.606;-87.602;2023-04-08T12:26:52;100982.59;;;7.56;65.14
49342;BME280;35210;41.606;-87.602;2023-04-08T12:29:22;100987.78;;;7.57;65.04
49342;BME280;35210;41.606;-87.602;2023-04-08T12:31:50;100988.28;;;7.67;64.34
49342;BME280;35210;41.606;-87.602;2023-04-08T12:34:18;100992.50;;;7.71;63.57
49342;BME280;35210;41.606;-87.602;2023-04-08T12:36:47;100995.75;;;7.78;63.55
49342;BME280;35210;41.606;-87.602;2023-04-08T12:39:15;101001.13;;;7.75;63.72
49342;BME280;35210;41.606;-87.602;2023-04-08T12:41:45;101003.75;;;7.75;63.92
49342;BME280;35210;41.606;-87.602;2023-04-08T12:44:13;101007.13;;;7.78;63.50
49342;BME280;35210;41.606;-87.602;2023-04-08T12:46:44;101006.88;;;7.84;63.92
49342;BME280;35210;41.606;-87.602;2023-04-08T12:49:12;101009.50;;;7.84;64.61
49342;BME280;35210;41.606;-87.602;2023-04-08T12:51:40;101009.56;;;7.83;62.62